TimeCST,TemperatureF,Dew PointF,Humidity,Sea Level PressureIn,VisibilityMPH,Wind Direction,Wind SpeedMPH,Gust SpeedMPH,PrecipitationIn,Events,Conditions,WindDirDegrees,DateUTC
12:12 AM,44.6,42.8,93,29.88,3.0,North,5.8,-,N/A,,Overcast,10,2013-12-29 06:12:00
12:48 AM,44.6,42.8,93,29.92,2.5,WNW,8.1,-,N/A,,Overcast,300,2013-12-29 06:48:00
12:56 AM,44.1,43.0,96,29.93,2.5,WNW,5.8,-,N/A,,Overcast,290,2013-12-29 06:56:00
1:09 AM,44.6,42.8,93,29.91,3.0,NW,5.8,-,N/A,,Overcast,320,2013-12-29 07:09:00
1:56 AM,45.0,43.0,93,29.91,4.0,NW,3.5,-,N/A,,Overcast,320,2013-12-29 07:56:00
2:46 AM,44.6,44.6,100,29.91,2.5,North,3.5,-,N/A,,Overcast,350,2013-12-29 08:46:00
2:56 AM,45.0,44.1,97,29.91,2.5,Calm,Calm,-,N/A,,Overcast,0,2013-12-29 08:56:00
3:22 AM,44.6,44.6,100,29.91,6.0,NNW,3.5,-,N/A,,Overcast,330,2013-12-29 09:22:00
3:56 AM,45.0,43.0,93,29.94,9.0,West,8.1,-,0.00,Rain,Light Rain,270,2013-12-29 09:56:00
4:56 AM,45.0,44.1,97,29.93,10.0,WNW,4.6,-,0.00,,Overcast,300,2013-12-29 10:56:00
5:56 AM,45.0,44.1,97,29.95,8.0,WNW,6.9,-,N/A,,Overcast,290,2013-12-29 11:56:00
6:56 AM,45.0,44.1,97,29.99,10.0,NW,5.8,-,N/A,,Overcast,310,2013-12-29 12:56:00
7:56 AM,46.0,44.1,93,30.02,7.0,WNW,9.2,-,N/A,,Overcast,300,2013-12-29 13:56:00
8:56 AM,46.0,44.1,93,30.05,9.0,WNW,8.1,-,N/A,,Overcast,300,2013-12-29 14:56:00
10:56 AM,48.0,45.0,89,30.05,10.0,NNW,9.2,-,N/A,,Overcast,340,2013-12-29 16:56:00
11:56 AM,48.9,45.0,86,30.04,10.0,NNW,5.8,-,N/A,,Overcast,330,2013-12-29 17:56:00
12:03 PM,48.2,44.6,87,30.03,10.0,NNW,5.8,-,N/A,,Overcast,340,2013-12-29 18:03:00
12:56 PM,48.9,45.0,86,30.02,10.0,WNW,5.8,-,N/A,,Overcast,300,2013-12-29 18:56:00
1:56 PM,51.1,45.0,80,30.01,10.0,North,6.9,-,N/A,,Overcast,350,2013-12-29 19:56:00
2:03 PM,50.0,44.6,82,30.01,10.0,NNW,5.8,-,N/A,,Overcast,340,2013-12-29 20:03:00
2:56 PM,54.0,44.1,69,30.00,10.0,Calm,Calm,-,N/A,,Clear,0,2013-12-29 20:56:00
3:56 PM,54.0,44.1,69,30.01,10.0,NNW,5.8,-,N/A,,Clear,340,2013-12-29 21:56:00
4:56 PM,50.0,44.1,80,30.02,10.0,NNW,3.5,-,N/A,,Clear,340,2013-12-29 22:56:00
5:56 PM,45.0,43.0,93,30.04,10.0,Calm,Calm,-,N/A,,Clear,0,2013-12-29 23:56:00
6:56 PM,43.0,41.0,93,30.07,10.0,Calm,Calm,-,N/A,,Clear,0,2013-12-30 00:56:00
7:56 PM,41.0,39.0,93,30.09,10.0,Calm,Calm,-,N/A,,Clear,0,2013-12-30 01:56:00
8:56 PM,39.0,37.0,93,30.11,10.0,Calm,Calm,-,N/A,,Clear,0,2013-12-30 02:56:00
9:56 PM,37.9,36.0,93,30.10,10.0,North,3.5,-,0.01,,Clear,10,2013-12-30 03:56:00
10:56 PM,37.9,36.0,93,30.10,10.0,Calm,Calm,-,N/A,,Clear,0,2013-12-30 04:56:00
11:56 PM,37.0,35.1,93,30.09,10.0,Calm,Calm,-,N/A,,Clear,0,2013-12-30 05:56:00